EKVD

Kolding Vamdrup Airport

Kolding / Vamdrup, Denmark
METAR EKVD 201250Z 32010KT 290V350 9999 SCT025 14/07 Q1027
Observed Flight Rules
Oct-20 @ 12:50 UTC (14 minutes ago) Visual Flight Rules
Wind Visibility Clouds
320° at 10 knots 10,000+ meters
  • Scattered at 2,500' AGL
Temperatures Readings
Current 14°C / 57°F
Dewpoint 7°C / 45°F
Humidity 63%
Altimeter 30.32" Hg
Pressure 1027 hPa
Elevation 45
METAR EKVD 201250Z 32010KT 290V350 9999 SCT025 14/07 Q1027
Observed Flight Rules
Oct-20 @ 12:50 UTC
(14 minutes ago)
VFR
Wind Visibility
320° at 10 knots 10,000+ meters
Clouds
  • Scattered at 2,500' AGL
Temperature Dewpoint
14°C / 57°F 7°C / 45°F
Humidity Altimeter Pressure
63% 30.32" Hg 1027 hPa